Fredericktown, Pennsylvania
Current Conditions -  °F | °C
As of 11:15 PM on Wednesday 17 Dec 2014 (Local Time) from KAFJ Reporting Station
Overcast Overcast  
Wind Chill: 19°   Ceiling: 2700
Heat Index: 28°   Visibility: 10mi
Dew Point: 21°   Wind: 10mph
Humidity: 74%   Direction: 260°W
Pressure: 30.15"   Gusts: 18mph
Location:  40°N, 80°W
Report Text: KAFJ 180415Z AUTO 26009G16KT 10SM SCT021 BKN027 OVC035 M02/M06 A3015 RMK AO1
Loading
Personal Weather Stations






























Interactive Weather Map New forecast layout! Learn more

10-Day Weather Forecast

Advertisements
Track Severe Weather on mobile